createdAt,value
2018-12-09T00:01:58.403Z,98373.12
2018-12-09T00:07:01.745Z,98370.42
2018-12-09T00:12:05.384Z,98359.34
2018-12-09T00:17:08.710Z,98363.25
2018-12-09T00:22:12.341Z,98359.45
2018-12-09T00:27:15.869Z,98337.81
2018-12-09T00:32:19.273Z,98329.08
2018-12-09T00:37:22.692Z,98324.26
2018-12-09T00:42:25.967Z,98320.55
2018-12-09T00:47:29.380Z,98319.03
2018-12-09T00:52:32.942Z,98306.38
2018-12-09T00:57:36.514Z,98338.70
2018-12-09T01:02:39.955Z,98349.69
2018-12-09T01:07:43.331Z,98336.47
2018-12-09T01:12:54.161Z,98325.06
2018-12-09T01:17:57.536Z,98333.97
2018-12-09T01:23:00.919Z,98342.05
2018-12-09T01:28:04.330Z,98333.37
2018-12-09T01:33:07.673Z,98328.97
2018-12-09T01:38:11.066Z,98331.95
2018-12-09T01:43:14.545Z,98329.14
2018-12-09T01:48:18.223Z,98335.00
2018-12-09T01:54:00.344Z,98345.66
2018-12-09T01:59:03.747Z,98351.06
2018-12-09T02:04:07.290Z,98361.22
2018-12-09T02:09:10.894Z,98358.92
2018-12-09T02:14:14.294Z,98360.84
2018-12-09T02:19:37.027Z,98372.50
2018-12-09T02:24:40.437Z,98371.14
2018-12-09T02:29:43.780Z,98371.88
2018-12-09T02:35:06.642Z,98356.11
2018-12-09T02:40:10.072Z,98363.53
2018-12-09T02:45:13.626Z,98374.36
2018-12-09T02:50:17.077Z,98372.48
2018-12-09T02:55:20.531Z,98380.00
2018-12-09T03:00:43.269Z,98384.28
2018-12-09T03:05:46.706Z,98392.00
2018-12-09T03:10:50.051Z,98397.25
2018-12-09T03:15:53.526Z,98393.13
2018-12-09T03:20:56.836Z,98394.98
2018-12-09T03:26:00.320Z,98370.69
2018-12-09T03:31:03.713Z,98387.03
2018-12-09T03:36:07.005Z,98392.31
2018-12-09T03:41:10.383Z,98381.84
2018-12-09T03:46:13.693Z,98391.30
2018-12-09T03:51:17.146Z,98391.53
2018-12-09T03:56:20.488Z,98395.14
2018-12-09T04:01:23.854Z,98412.45
2018-12-09T04:06:27.232Z,98406.88
2018-12-09T04:11:30.728Z,98418.91
2018-12-09T04:16:34.034Z,98425.48
2018-12-09T04:21:37.697Z,98434.00
2018-12-09T04:26:41.075Z,98438.27
2018-12-09T04:31:44.474Z,98447.92
2018-12-09T04:37:07.234Z,98424.38
2018-12-09T04:42:10.590Z,98434.94
2018-12-09T04:47:13.966Z,98440.84
2018-12-09T04:52:17.310Z,98445.52
2018-12-09T04:57:20.685Z,98443.80
2018-12-09T05:02:24.073Z,98436.69
2018-12-09T05:07:27.463Z,98450.42
2018-12-09T05:12:31.085Z,98448.38
2018-12-09T05:17:34.574Z,98454.28
2018-12-09T05:22:37.993Z,98456.09
2018-12-09T05:27:41.299Z,98460.31
2018-12-09T05:32:44.709Z,98473.12
2018-12-09T05:37:48.093Z,98469.30
2018-12-09T05:42:51.716Z,98487.56
2018-12-09T05:47:55.079Z,98484.64
2018-12-09T05:52:58.445Z,98490.88
2018-12-09T05:58:01.832Z,98496.30
2018-12-09T06:03:05.216Z,98494.83
2018-12-09T06:08:08.565Z,98489.94
2018-12-09T06:13:11.946Z,98488.77
2018-12-09T06:18:15.591Z,98501.33
2018-12-09T06:23:18.949Z,98496.98
2018-12-09T06:28:22.370Z,98499.41
2018-12-09T06:33:25.761Z,98509.78
2018-12-09T06:38:29.264Z,98513.19
2018-12-09T06:43:32.672Z,98516.44
2018-12-09T06:48:36.063Z,98517.28
2018-12-09T06:53:39.414Z,98516.44
2018-12-09T06:58:42.824Z,98536.02
2018-12-09T07:03:46.362Z,98544.52
2018-12-09T07:08:49.694Z,98542.83
2018-12-09T07:13:53.078Z,98546.34
2018-12-09T07:18:56.484Z,98556.85
2018-12-09T07:24:00.001Z,98555.06
2018-12-09T07:29:03.377Z,98561.88
2018-12-09T07:34:06.747Z,98568.49
2018-12-09T07:39:10.130Z,98571.25
2018-12-09T07:44:13.533Z,98582.20
2018-12-09T07:49:16.937Z,98587.23
2018-12-09T07:54:20.280Z,98588.38
2018-12-09T07:59:23.646Z,98594.30
2018-12-09T08:04:27.041Z,98606.21
2018-12-09T08:09:30.404Z,98610.31
2018-12-09T08:14:54.665Z,98622.99
2018-12-09T08:19:58.091Z,98649.14
2018-12-09T08:25:01.460Z,98659.30
2018-12-09T08:30:04.899Z,98693.48
2018-12-09T08:35:08.297Z,98718.75
2018-12-09T08:40:11.688Z,98727.98
2018-12-09T08:45:16.904Z,98735.24
2018-12-09T08:50:20.275Z,98743.41
2018-12-09T08:55:23.577Z,98756.59
2018-12-09T09:00:46.404Z,98761.05
2018-12-09T09:10:59.572Z,98764.66
2018-12-09T09:16:02.905Z,98777.22
2018-12-09T09:21:06.282Z,98777.17
2018-12-09T09:26:09.676Z,98792.81
2018-12-09T09:31:13.094Z,98802.05
2018-12-09T09:36:16.540Z,98816.92
2018-12-09T09:41:20.199Z,98823.41
2018-12-09T09:46:23.614Z,98836.02
2018-12-09T09:51:26.984Z,98836.24
2018-12-09T09:56:30.319Z,98845.94
2018-12-09T10:01:33.708Z,98859.47
2018-12-09T10:06:37.107Z,98854.11
2018-12-09T10:11:40.524Z,98861.42
2018-12-09T10:16:44.147Z,98869.42
2018-12-09T10:21:47.651Z,98874.45
2018-12-09T10:26:50.984Z,98872.71
2018-12-09T10:31:54.323Z,98884.70
2018-12-09T10:36:57.708Z,98894.11
2018-12-09T10:42:01.071Z,98893.38
2018-12-09T10:47:04.451Z,98897.38
2018-12-09T10:52:07.912Z,98895.07
2018-12-09T10:57:11.312Z,98906.69
2018-12-09T11:02:33.752Z,98916.59
2018-12-09T11:07:49.860Z,98919.20
2018-12-09T11:12:53.294Z,98926.77
2018-12-09T11:18:16.062Z,98927.27
2018-12-09T11:23:19.397Z,98930.25
2018-12-09T11:28:22.803Z,98941.13
2018-12-09T11:33:26.144Z,98946.00
2018-12-09T11:38:29.748Z,98956.42
2018-12-09T11:43:33.128Z,98952.93
2018-12-09T11:48:36.641Z,98963.00
2018-12-09T11:53:40.038Z,98982.27
2018-12-09T11:58:43.401Z,98982.38
2018-12-09T12:03:46.734Z,98977.16
2018-12-09T12:08:50.121Z,98985.41
2018-12-09T12:13:53.609Z,98984.63
2018-12-09T12:18:57.016Z,98986.87
2018-12-09T12:24:12.866Z,99000.34
2018-12-09T12:29:16.371Z,99005.23
2018-12-09T12:34:19.722Z,99010.34
2018-12-09T12:39:23.141Z,99012.35
2018-12-09T12:44:26.515Z,99029.22
2018-12-09T12:49:30.355Z,99025.60
2018-12-09T12:54:33.730Z,99028.80
2018-12-09T12:59:37.125Z,99029.02
2018-12-09T13:04:40.462Z,99046.50
2018-12-09T13:09:43.888Z,99054.93
2018-12-09T13:14:47.285Z,99058.20
2018-12-09T13:19:50.681Z,99058.48
2018-12-09T13:24:54.112Z,99070.62
2018-12-09T13:29:57.565Z,99080.23
2018-12-09T13:35:00.982Z,99082.25
2018-12-09T13:40:04.402Z,99103.41
2018-12-09T13:45:09.119Z,99111.20
2018-12-09T13:50:12.517Z,99125.74
2018-12-09T13:55:15.938Z,99127.23
2018-12-09T14:00:38.743Z,99132.94
2018-12-09T14:05:42.282Z,99145.64
2018-12-09T14:10:45.648Z,99154.91
2018-12-09T14:15:49.222Z,99167.89
2018-12-09T14:20:52.642Z,99180.94
2018-12-09T14:25:56.000Z,99184.87
2018-12-09T14:30:59.386Z,99197.72
2018-12-09T14:36:02.800Z,99214.14
2018-12-09T14:41:06.214Z,99226.47
2018-12-09T14:46:09.592Z,99229.34
2018-12-09T14:51:13.051Z,99252.55
2018-12-09T14:56:16.416Z,99264.67
